Time;durP1;ratioP1;P1;durP2;ratioP2;P2;SDS_P1;SDS_P2;PMS_P1;PMS_P2;Temp;Humidity;BMP_temperature;BMP_pressure;BME280_temperature;BME280_humidity;BME280_pressure;Samples;Min_cycle;Max_cycle;Signal;HPM_P1;HPM_P2
2022/05/07 00:02:36;;;;;;;;;;;;;;;;;;;;;
2022/05/07 00:05:16;;;;;;;;;;;;;;;;;;;;;
2022/05/07 00:08:08;;;;;;;9.10;7.28;;;11.40;99.90;;;10.28;91.81;101727.00;4816814;28;20467;-76
2022/05/07 00:11:21;;;;;;;9.88;5.18;;;11.40;99.90;;;10.20;93.27;101729.00;4795357;28;20039;-75
2022/05/07 00:13:52;;;;;;;10.48;5.88;;;11.40;99.90;;;10.20;94.29;101718.47;4885813;28;20107;-76
2022/05/07 00:19:03;;;;;;;9.30;6.35;;;11.40;99.90;;;10.32;94.15;101717.28;4921004;28;20081;-76
2022/05/07 00:21:29;;;;;;;10.00;6.13;;;11.40;99.90;;;10.37;93.90;101726.75;4924772;28;20032;-75
2022/05/07 00:24:05;;;;;;;;;;;;;;;;;;;;;
2022/05/07 00:26:24;;;;;;;8.38;5.15;;;11.40;99.90;;;10.32;91.93;101720.75;4994857;23;20983;-76
2022/05/07 00:28:49;;;;;;;10.80;5.35;;;11.40;99.90;;;10.29;91.09;101722.59;4936572;28;20034;-76
2022/05/07 00:31:15;;;;;;;8.82;5.07;;;11.40;99.90;;;10.23;90.77;101727.13;4965669;28;20499;-76
2022/05/07 00:33:41;;;;;;;9.93;4.00;;;11.30;99.90;;;10.22;90.34;101732.44;4959795;28;20114;-75
2022/05/07 00:36:06;;;;;;;6.72;4.65;;;11.30;99.90;;;10.15;90.02;101734.41;4951306;28;20447;-76
2022/05/07 00:38:32;;;;;;;7.70;4.57;;;11.30;99.90;;;10.12;90.11;101729.22;4932599;28;20026;-76
2022/05/07 00:41:00;;;;;;;6.93;4.55;;;11.20;99.90;;;10.12;89.83;101723.09;4951758;28;20456;-76
2022/05/07 00:43:39;;;;;;;8.80;5.47;;;11.20;99.90;;;10.11;89.97;101721.34;4933133;28;20402;-75
2022/05/07 00:46:15;;;;;;;6.57;4.10;;;11.20;99.90;;;10.08;90.23;101730.19;4877384;23;20134;-77
2022/05/07 00:49:44;;;;;;;7.38;5.40;;;11.20;99.90;;;10.07;90.58;101729.34;4843486;28;20066;-75
2022/05/07 00:52:54;;;;;;;7.78;4.70;;;11.10;99.90;;;10.09;90.57;101729.31;4832203;28;20039;-75
2022/05/07 00:55:35;;;;;;;6.68;5.00;;;11.20;99.90;;;10.13;90.82;101730.06;4796513;29;20044;-75
2022/05/07 00:58:01;;;;;;;10.68;5.63;;;11.20;99.90;;;10.17;90.50;101727.31;4872012;28;20125;-75
2022/05/07 01:00:27;;;;;;;7.35;5.40;;;11.20;99.90;;;10.25;91.01;101727.94;4878434;28;20106;-75
2022/05/07 01:02:55;;;;;;;9.98;6.13;;;11.30;99.90;;;10.35;91.30;101723.31;4933357;28;20118;-75
2022/05/07 01:05:36;;;;;;;;;;;;;;;;;;;;;
2022/05/07 01:08:16;;;;;;;;;;;;;;;;;;;;;
2022/05/07 01:10:56;;;;;;;;;;;;;;;;;;;;;
2022/05/07 01:13:36;;;;;;;;;;;;;;;;;;;;;
2022/05/07 01:16:04;;;;;;;11.38;5.55;;;11.80;99.90;;;10.88;90.58;101715.53;4785687;28;20206;-76
2022/05/07 01:18:43;;;;;;;10.32;5.32;;;12.00;99.90;;;10.98;90.02;101708.19;4844930;28;20168;-76
2022/05/07 01:21:37;;;;;;;;;;;;;;;;;;;;;
2022/05/07 01:26:45;;;;;;;8.38;5.35;;;12.20;99.90;;;11.34;86.92;101726.34;4848732;28;20059;-76
2022/05/07 01:29:44;;;;;;;8.13;5.55;;;;;;;11.41;86.68;101721.72;4813667;28;20049;-75
2022/05/07 01:32:54;;;;;;;7.85;5.53;;;12.40;99.90;;;11.47;86.04;101724.13;4784384;29;20037;-75
2022/05/07 01:35:45;;;;;;;11.38;5.80;;;12.50;99.90;;;11.49;86.04;101723.16;4732571;29;20045;-75
2022/05/07 01:38:17;;;;;;;8.98;5.50;;;12.50;99.90;;;11.49;87.42;101717.03;4730600;29;20044;-75
2022/05/07 01:40:55;;;;;;;7.38;5.50;;;;;;;11.47;87.30;101718.88;4722607;29;20043;-75
2022/05/07 01:43:47;;;;;;;13.93;5.90;;;12.50;99.90;;;11.48;86.96;101715.31;4783509;29;20117;-76
2022/05/07 01:49:06;;;;;;;10.23;5.78;;;12.50;99.90;;;11.50;86.20;101716.97;4768912;29;20065;-75
2022/05/07 01:52:04;;;;;;;11.32;6.00;;;12.50;99.90;;;11.55;85.97;101719.44;4774563;29;20110;-76
2022/05/07 01:55:03;;;;;;;9.32;5.55;;;12.50;99.90;;;11.58;86.21;101706.16;4800889;29;20043;-76
2022/05/07 01:58:14;;;;;;;7.57;5.32;;;12.60;99.90;;;11.59;85.77;101702.59;4812620;28;20060;-75
2022/05/07 02:02:09;;;;;;;;;;;;;;;;;;;;;
2022/05/07 02:04:36;;;;;;;12.45;6.20;;;12.60;99.90;;;11.65;86.50;101702.38;4724821;29;20643;-75
2022/05/07 02:07:04;;;;;;;10.88;6.05;;;12.60;99.90;;;11.67;85.66;101699.69;4764389;29;20049;-75
2022/05/07 02:10:25;;;;;;;11.73;6.00;;;12.70;99.90;;;11.68;86.36;101702.28;4809261;28;20045;-75
2022/05/07 02:12:54;;;;;;;11.88;6.82;;;12.70;99.90;;;11.69;86.08;101698.72;4814039;28;20039;-75
2022/05/07 02:19:16;;;;;;;12.20;6.15;;;12.70;99.90;;;11.73;85.39;101690.69;4752710;29;20120;-75
2022/05/07 02:21:54;;;;;;;14.98;6.55;;;12.70;99.90;;;11.76;85.21;101698.50;4803564;28;20041;-75
2022/05/07 02:24:34;;;;;;;10.38;5.63;;;12.70;99.90;;;11.76;85.53;101699.34;4875312;23;20040;-76
2022/05/07 02:27:57;;;;;;;;;;;;;;;;;;;;;
2022/05/07 02:30:44;;;;;;;9.10;5.22;;;12.80;99.90;;;11.79;86.11;101688.72;4863541;28;20591;-75
2022/05/07 02:36:46;;;;;;;;;;;;;;;;;;;;;
2022/05/07 02:39:12;;;;;;;14.32;5.68;;;12.80;99.90;;;11.82;86.78;101690.38;4841581;29;21601;-75
2022/05/07 02:44:46;;;;;;;;;;;;;;;;;;;;;
2022/05/07 02:47:16;;;;;;;8.55;5.70;;;12.80;99.90;;;11.84;86.55;101685.91;4839413;28;20449;-75
2022/05/07 02:49:57;;;;;;;10.43;5.57;;;12.80;99.90;;;11.85;86.47;101682.31;4875299;28;20118;-75
2022/05/07 02:52:36;;;;;;;12.43;6.22;;;12.90;99.90;;;11.85;87.49;101691.09;4885171;28;20472;-74
2022/05/07 02:55:57;;;;;;;;;;;;;;;;;;;;;
2022/05/07 02:58:26;;;;;;;7.38;5.60;;;12.80;99.90;;;11.85;87.73;101679.69;4871639;28;20046;-75
2022/05/07 03:00:55;;;;;;;8.48;5.35;;;12.90;99.90;;;11.88;87.60;101687.53;4849167;28;20407;-75
2022/05/07 03:03:36;;;;;;;12.05;6.00;;;12.90;99.90;;;11.92;87.98;101685.63;4856872;28;20028;-75
2022/05/07 03:06:16;;;;;;;7.20;5.60;;;;;;;11.95;87.74;101693.47;4820126;28;20473;-75
2022/05/07 03:08:44;;;;;;;8.30;5.82;;;13.00;99.90;;;11.95;87.54;101686.38;4881240;28;20049;-73
2022/05/07 03:11:11;;;;;;;14.60;5.80;;;13.00;99.90;;;11.98;87.24;101688.91;4926673;28;20089;-75
2022/05/07 03:13:37;;;;;;;10.65;6.10;;;13.00;99.90;;;11.97;86.81;101689.84;4954004;28;20033;-75
2022/05/07 03:16:03;;;;;;;11.05;5.70;;;13.00;99.90;;;11.98;87.67;101694.19;4950319;28;20030;-77
2022/05/07 03:18:29;;;;;;;10.13;6.13;;;13.00;99.90;;;11.98;87.30;101694.19;4965149;28;20641;-77
2022/05/07 03:20:54;;;;;;;8.00;5.43;;;13.00;99.90;;;11.98;87.21;101694.19;4972903;28;20114;-77
2022/05/07 03:23:20;;;;;;;8.23;6.15;;;13.00;99.90;;;11.95;88.32;101701.38;4977494;28;20103;-76
2022/05/07 03:25:46;;;;;;;9.65;6.10;;;12.90;99.90;;;11.92;88.42;101694.41;4958983;28;20042;-77
2022/05/07 03:28:16;;;;;;;8.90;5.93;;;12.90;99.90;;;11.83;89.36;101694.72;4963100;28;20063;-77
2022/05/07 03:30:42;;;;;;;11.05;6.47;;;12.90;99.90;;;11.80;90.10;101700.13;4946129;28;20060;-76
2022/05/07 03:33:08;;;;;;;7.40;6.10;;;12.80;99.90;;;11.79;89.29;101701.00;4965214;28;20028;-77
2022/05/07 03:35:33;;;;;;;8.32;6.07;;;12.80;99.90;;;11.79;89.66;101703.66;4964676;28;20098;-76
2022/05/07 03:37:59;;;;;;;9.23;5.95;;;12.80;99.90;;;11.79;89.71;101704.53;4966138;28;20022;-76
2022/05/07 03:40:34;;;;;;;8.98;5.93;;;12.80;99.90;;;11.81;89.85;101704.47;4965236;28;20068;-77
2022/05/07 03:42:59;;;;;;;10.48;5.90;;;12.80;99.90;;;11.81;89.44;101691.28;5000079;28;20802;-77
2022/05/07 03:45:25;;;;;;;12.70;6.22;;;12.80;99.90;;;11.84;89.54;101696.47;4929527;28;20146;-76
2022/05/07 03:47:51;;;;;;;11.18;6.03;;;12.90;99.90;;;11.88;89.30;101703.38;4968069;28;20048;-77
2022/05/07 03:50:17;;;;;;;10.52;6.47;;;12.90;99.90;;;11.92;89.06;101698.81;4971822;28;20025;-77
2022/05/07 03:55:30;;;;;;;;;;;12.90;99.90;;;11.96;89.54;101703.94;4965185;28;20096;-77
2022/05/07 03:57:55;;;;;;;9.43;6.17;;;12.90;99.90;;;11.96;89.66;101696.00;4970905;28;19930;-76
2022/05/07 04:00:21;;;;;;;10.88;6.78;;;13.00;99.90;;;11.99;89.21;101697.72;4971468;28;20736;-77
2022/05/07 04:02:47;;;;;;;11.18;6.22;;;13.00;99.90;;;12.07;89.61;101699.13;4941214;28;20040;-77
2022/05/07 04:05:55;;;;;;;12.80;6.10;;;13.10;99.90;;;12.26;89.48;101709.00;4976345;23;20046;-77
2022/05/07 04:08:36;;;;;;;13.45;7.13;;;;;;;12.49;89.75;101708.13;4877543;28;20069;-77
2022/05/07 04:11:02;;;;;;;8.68;6.30;;;13.40;99.90;;;12.53;88.74;101704.44;4951847;28;20617;-77
2022/05/07 04:13:28;;;;;;;11.30;7.22;;;13.50;99.90;;;12.59;87.75;101706.84;4972188;28;20021;-77
2022/05/07 04:15:53;;;;;;;12.00;6.55;;;13.70;99.90;;;12.67;88.46;101706.53;4964279;28;20072;-75
2022/05/07 04:18:21;;;;;;;12.45;6.50;;;13.70;99.90;;;12.76;88.03;101700.88;4983416;28;20414;-75
2022/05/07 04:20:48;;;;;;;10.73;6.95;;;13.80;99.90;;;12.82;87.33;101710.34;4992955;28;20040;-76
2022/05/07 04:23:13;;;;;;;7.70;6.15;;;13.90;99.90;;;12.89;86.80;101701.22;4983112;28;20050;-76
2022/05/07 04:25:40;;;;;;;11.50;6.43;;;14.00;99.90;;;12.96;86.38;101701.84;4985633;28;20124;-75
2022/05/07 04:28:06;;;;;;;11.05;7.43;;;14.10;99.90;;;12.94;86.63;101701.94;5011841;28;20037;-75
2022/05/07 04:30:32;;;;;;;12.68;7.03;;;14.20;99.90;;;13.02;86.41;101704.22;5015292;28;24040;-75
2022/05/07 04:32:57;;;;;;;10.75;6.68;;;14.30;99.90;;;13.10;85.76;101707.44;4967718;28;20143;-75
2022/05/07 04:35:23;;;;;;;;;;;14.30;99.90;;;13.12;85.57;101710.88;4987385;28;20175;-75
2022/05/07 04:37:49;;;;;;;11.52;7.07;;;14.40;99.90;;;13.16;85.96;101714.25;4996072;28;19916;-75
2022/05/07 04:40:15;;;;;;;10.20;6.88;;;14.50;99.90;;;13.25;85.23;101711.22;4986646;28;20025;-75
2022/05/07 04:42:41;;;;;;;13.63;6.75;;;14.60;99.90;;;13.37;85.73;101716.03;5032586;28;20049;-75
2022/05/07 04:45:08;;;;;;;14.68;6.80;;;14.70;99.90;;;13.47;85.33;101725.28;5010102;28;20128;-76
2022/05/07 04:47:33;;;;;;;11.43;5.95;;;14.90;99.90;;;13.56;84.82;101725.81;4992288;28;20045;-76
2022/05/07 04:49:59;;;;;;;15.20;7.03;;;15.00;99.90;;;13.64;84.47;101723.69;4984362;28;20060;-76
2022/05/07 04:52:26;;;;;;;14.82;7.40;;;15.10;99.90;;;13.71;83.58;101725.13;4976168;28;20583;-76
2022/05/07 04:54:53;;;;;;;11.55;7.05;;;15.20;99.90;;;13.75;83.09;101724.94;4980467;28;20116;-76
2022/05/07 04:57:20;;;;;;;10.02;6.70;;;15.20;99.90;;;13.79;83.40;101728.31;4981959;28;20022;-76
2022/05/07 04:59:45;;;;;;;11.15;6.80;;;15.30;99.90;;;13.81;83.13;101734.41;5000911;28;20034;-76
2022/05/07 05:02:11;;;;;;;10.45;6.70;;;15.40;99.90;;;13.93;82.37;101728.56;4990629;28;20118;-76
2022/05/07 05:04:37;;;;;;;10.27;6.90;;;15.10;99.90;;;13.78;81.45;101726.63;4992280;28;20136;-76
2022/05/07 05:07:03;;;;;;;10.63;6.80;;;14.90;99.90;;;13.73;82.94;101729.44;4993413;28;20473;-75
2022/05/07 05:09:28;;;;;;;9.38;6.90;;;14.90;99.90;;;13.75;83.78;101737.31;4999622;28;20112;-76
2022/05/07 05:11:54;;;;;;;8.75;6.28;;;14.90;99.90;;;13.79;84.21;101732.75;4987102;28;20048;-76
2022/05/07 05:17:04;;;;;;;12.23;6.43;;;14.80;99.90;;;13.77;84.32;101734.63;4962137;28;19924;-76
2022/05/07 05:19:30;;;;;;;10.45;6.57;;;14.90;99.90;;;13.78;83.48;101733.66;4963580;28;20084;-76
2022/05/07 05:21:55;;;;;;;13.65;6.60;;;14.90;99.90;;;13.80;83.31;101730.06;4972150;28;20500;-75
2022/05/07 05:24:35;;;;;;;12.32;6.50;;;14.90;99.90;;;13.87;83.27;101741.22;4993588;23;20420;-75
2022/05/07 05:27:36;;;;;;;11.25;6.70;;;14.90;99.90;;;13.93;83.16;101738.28;4855317;28;20061;-78
2022/05/07 05:30:16;;;;;;;11.60;6.22;;;15.00;99.90;;;13.97;83.17;101742.50;4908134;28;20052;-76
2022/05/07 05:36:34;;;;;;;13.82;6.13;;;15.20;99.90;;;14.16;83.32;101743.41;4797181;28;20375;-76
2022/05/07 05:39:34;;;;;;;13.25;6.97;;;15.20;99.90;;;14.33;82.95;101753.22;4821899;28;20135;-76
2022/05/07 05:42:16;;;;;;;9.50;6.50;;;15.40;99.90;;;14.50;82.85;101747.16;4914979;28;20057;-76
2022/05/07 05:44:55;;;;;;;9.38;6.53;;;15.50;99.90;;;14.67;82.25;101748.19;4830631;28;20035;-76
2022/05/07 05:47:36;;;;;;;11.77;6.55;;;15.70;99.90;;;14.96;80.65;101752.09;4802214;29;20542;-76
2022/05/07 05:50:26;;;;;;;9.70;6.30;;;16.00;99.90;;;15.31;79.39;101760.09;4773636;29;20052;-76
2022/05/07 05:53:08;;;;;;;10.75;6.10;;;16.30;99.90;;;15.71;77.52;101769.59;4798882;28;20037;-76
2022/05/07 05:55:47;;;;;;;13.70;6.28;;;;;;;15.92;75.92;101761.44;4817309;28;20170;-76
2022/05/07 05:58:16;;;;;;;13.05;6.82;;;;;;;16.20;75.15;101760.84;4844396;28;20510;-76
2022/05/07 06:01:54;;;;;;;8.25;6.30;;;17.10;99.90;;;16.46;73.82;101762.06;4856591;28;20040;-76
2022/05/07 06:05:08;;;;;;;12.02;6.97;;;17.30;99.90;;;16.47;73.53;101768.25;4815040;28;20060;-76
2022/05/07 06:11:03;;;;;;;12.32;7.03;;;17.10;99.90;;;16.34;72.44;101766.25;4805871;28;20117;-76
2022/05/07 06:13:53;;;;;;;10.80;6.40;;;;;;;16.22;73.09;101769.59;4829391;28;20040;-76
2022/05/07 06:16:53;;;;;;;8.57;6.20;;;17.00;99.90;;;16.13;73.39;101772.72;4799236;28;20039;-76
2022/05/07 06:19:45;;;;;;;10.20;6.70;;;16.90;99.90;;;16.03;73.61;101772.38;4818141;28;20490;-76
2022/05/07 06:29:05;;;;;;;10.70;6.57;;;;;;;15.78;75.00;101786.91;4786198;28;20078;-75
2022/05/07 06:31:36;;;;;;;9.73;7.32;;;16.60;99.90;;;15.81;75.37;101785.03;4779843;28;20143;-76
2022/05/07 06:34:02;;;;;;;13.32;7.05;;;16.60;99.90;;;15.76;75.98;101787.94;4919872;28;20038;-76
2022/05/07 06:36:31;;;;;;;10.55;7.78;;;16.60;99.90;;;15.76;76.15;101783.47;4943792;28;20048;-76
2022/05/07 06:38:57;;;;;;;11.82;7.72;;;16.60;99.90;;;15.81;76.05;101787.69;4916359;28;20044;-76
2022/05/07 06:41:23;;;;;;;17.67;8.35;;;16.60;99.90;;;15.81;76.19;101785.91;4958872;28;20031;-76
2022/05/07 06:43:48;;;;;;;;;;;16.60;99.90;;;15.88;76.85;101789.97;4951089;28;20145;-76
2022/05/07 06:46:14;;;;;;;13.23;8.48;;;16.70;99.90;;;15.97;76.93;101796.59;4963969;28;20391;-76
2022/05/07 06:48:41;;;;;;;16.58;9.65;;;16.80;99.90;;;16.04;75.86;101782.03;4934498;28;20490;-76
2022/05/07 06:51:11;;;;;;;17.25;9.65;;;16.90;99.90;;;16.15;75.54;101787.63;4956218;28;20026;-77
2022/05/07 06:53:37;;;;;;;16.10;9.98;;;17.00;99.90;;;16.30;75.00;101791.28;4902689;28;20031;-77
2022/05/07 06:56:03;;;;;;;16.75;10.35;;;17.10;99.90;;;16.44;75.10;101795.00;4970671;28;20031;-77
2022/05/07 06:58:30;;;;;;;23.08;10.52;;;17.20;99.90;;;16.56;73.84;101794.31;4968397;28;20031;-76
2022/05/07 07:00:57;;;;;;;15.48;10.75;;;17.30;99.90;;;16.70;72.90;101785.59;4948657;28;20038;-76
2022/05/07 07:03:24;;;;;;;22.95;11.23;;;17.50;99.90;;;16.78;72.00;101789.53;4950663;28;20477;-76
2022/05/07 07:05:53;;;;;;;19.15;11.90;;;17.50;99.90;;;16.80;71.59;101801.00;4910562;28;20045;-77
2022/05/07 07:08:20;;;;;;;21.08;12.23;;;17.50;99.90;;;16.86;71.58;101796.25;4938729;28;20094;-76
2022/05/07 07:10:45;;;;;;;22.58;13.38;;;17.60;99.90;;;16.97;71.51;101794.69;4926817;28;20025;-75
2022/05/07 07:13:11;;;;;;;23.20;12.77;;;17.70;99.90;;;17.11;71.67;101793.09;4944244;28;20242;-76
2022/05/07 07:15:39;;;;;;;22.67;12.95;;;17.80;99.90;;;17.23;71.03;101795.00;4935564;28;20037;-76
2022/05/07 07:18:12;;;;;;;24.23;13.48;;;18.00;99.90;;;17.35;70.66;101802.31;4964983;28;20041;-76
2022/05/07 07:20:49;;;;;;;21.85;13.57;;;18.00;99.90;;;17.49;69.28;101789.97;4963815;28;20023;-75
2022/05/07 07:23:15;;;;;;;29.63;13.32;;;18.20;99.90;;;18.15;67.65;101807.38;4964638;28;20057;-74
2022/05/07 07:25:43;;;;;;;22.83;13.20;;;18.80;99.90;;;19.29;64.93;101806.34;4968694;28;20137;-75
2022/05/07 07:28:10;;;;;;;23.85;13.85;;;19.70;99.90;;;20.66;61.33;101803.16;4927408;28;20050;-75
2022/05/07 07:30:37;;;;;;;22.30;12.70;;;20.70;99.90;;;21.48;58.46;101805.22;4969386;28;20034;-75
2022/05/07 07:33:04;;;;;;;20.30;13.13;;;21.60;99.90;;;22.27;55.94;101806.25;4960005;28;20033;-76
2022/05/07 07:35:31;;;;;;;21.48;12.27;;;22.40;99.90;;;23.05;52.71;101806.31;4962190;28;20038;-76
2022/05/07 07:37:57;;;;;;;18.73;11.68;;;23.20;99.90;;;24.24;50.76;101819.50;4935640;28;20035;-76
2022/05/07 07:40:23;;;;;;;17.38;12.00;;;24.10;99.90;;;25.30;47.83;101810.06;4974782;28;20379;-76
2022/05/07 07:42:51;;;;;;;19.13;11.48;;;25.10;99.90;;;26.32;45.76;101817.56;4967353;28;20064;-75
2022/05/07 07:48:03;;;;;;;20.88;11.57;;;25.80;98.20;;;26.17;44.63;101837.94;4936570;28;20046;-75
2022/05/07 07:50:38;;;;;;;16.20;10.70;;;25.90;97.30;;;25.77;44.94;101839.00;4948976;28;20026;-75
2022/05/07 07:53:07;;;;;;;14.18;10.50;;;25.90;96.10;;;25.95;44.63;101845.38;4949266;28;20550;-75
2022/05/07 07:55:34;;;;;;;16.13;10.30;;;25.60;95.90;;;25.29;44.97;101838.03;4955500;28;20035;-75
2022/05/07 07:58:02;;;;;;;15.40;10.18;;;25.10;96.60;;;24.54;46.78;101847.44;4959205;28;20391;-76
2022/05/07 08:00:34;;;;;;;21.95;11.05;;;25.00;97.90;;;25.32;46.45;101843.13;4962542;28;20110;-76
2022/05/07 08:03:03;;;;;;;18.98;10.80;;;25.70;98.30;;;26.70;44.25;101850.84;4939591;28;20037;-75
2022/05/07 08:05:34;;;;;;;22.08;9.90;;;26.70;96.90;;;27.65;41.50;101859.44;4945707;28;21195;-77
2022/05/07 08:13:36;;;;;;;21.95;9.07;;;26.90;93.60;;;26.26;42.43;101869.44;4945515;28;20045;-76
2022/05/07 08:16:03;;;;;;;19.17;9.35;;;26.60;94.40;;;26.09;43.60;101872.88;4956410;28;20030;-75
2022/05/07 08:18:29;;;;;;;17.05;8.63;;;26.60;94.80;;;26.60;42.68;101869.78;4960918;28;20048;-76
2022/05/07 08:20:56;;;;;;;15.13;7.88;;;26.50;95.30;;;26.43;43.19;101870.53;4956714;28;20418;-76
2022/05/07 08:23:22;;;;;;;12.50;7.90;;;26.50;93.60;;;26.62;41.47;101877.72;4938355;28;20670;-75
2022/05/07 08:25:49;;;;;;;16.92;7.78;;;26.20;93.40;;;26.02;42.22;101885.28;4929949;28;21483;-76
2022/05/07 08:28:17;;;;;;;11.48;6.57;;;25.90;94.30;;;25.33;43.85;101879.00;4969445;28;20117;-76
2022/05/07 08:30:44;;;;;;;11.05;5.85;;;25.90;94.60;;;25.99;42.72;101884.56;4933846;28;20062;-76
2022/05/07 08:33:10;;;;;;;8.70;4.95;;;26.00;94.00;;;26.13;42.90;101890.50;4961911;28;20403;-76
2022/05/07 08:35:36;;;;;;;11.40;5.80;;;25.80;94.00;;;25.57;43.65;101892.06;4963287;28;20046;-76
2022/05/07 08:38:01;;;;;;;8.02;5.45;;;25.50;92.70;;;24.90;43.64;101894.50;4977660;28;20407;-76
2022/05/07 08:40:30;;;;;;;11.57;5.97;;;24.70;94.00;;;23.72;45.87;101897.44;4953361;28;20081;-75
2022/05/07 08:42:57;;;;;;;12.00;6.10;;;24.00;95.70;;;23.19;47.80;101902.72;4936294;28;20042;-76
2022/05/07 08:45:23;;;;;;;9.98;6.20;;;23.70;96.40;;;23.15;48.23;101890.53;4941350;28;21597;-75
2022/05/07 08:47:52;;;;;;;10.55;6.00;;;23.80;98.00;;;23.78;48.32;101893.44;4975106;28;20202;-76
2022/05/07 08:50:21;;;;;;;10.65;4.60;;;24.00;97.10;;;23.78;47.02;101888.03;4977148;28;20042;-75
2022/05/07 08:52:48;;;;;;;8.10;4.35;;;24.20;96.10;;;23.84;46.79;101902.78;4956939;28;20022;-75
2022/05/07 08:55:18;;;;;;;10.82;4.35;;;24.00;95.30;;;23.46;46.46;101905.00;4963142;28;20043;-76
2022/05/07 08:57:50;;;;;;;5.30;3.58;;;23.80;96.10;;;23.31;47.64;101900.88;4933684;28;20394;-76
2022/05/07 09:00:26;;;;;;;8.98;4.82;;;23.60;95.80;;;23.10;46.77;101898.97;4975387;28;20189;-76
2022/05/07 09:02:57;;;;;;;6.78;4.32;;;23.50;96.90;;;23.04;48.69;101910.19;4973578;28;20047;-76
2022/05/07 09:05:38;;;;;;;10.73;4.30;;;23.60;97.10;;;23.33;47.69;101910.53;4979557;28;20018;-75
2022/05/07 09:08:07;;;;;;;9.52;5.03;;;23.50;96.70;;;23.23;48.48;101909.56;4934568;28;20050;-76
2022/05/07 09:10:35;;;;;;;7.97;4.65;;;23.80;96.60;;;23.59;46.90;101920.97;4943758;28;20089;-76
2022/05/07 09:13:17;;;;;;;10.13;5.00;;;23.90;96.00;;;23.71;45.95;101916.38;4927356;28;20047;-76
2022/05/07 09:15:58;;;;;;;7.60;3.95;;;24.10;96.90;;;23.95;47.65;101919.75;4961358;28;20087;-77
2022/05/07 09:18:28;;;;;;;6.65;3.53;;;24.10;96.80;;;23.79;47.72;101930.06;4937580;28;20030;-76
2022/05/07 09:21:24;;;;;;;9.35;2.97;;;24.20;95.90;;;23.76;46.26;101922.28;4968883;28;20066;-75
2022/05/07 09:23:56;;;;;;;5.60;2.83;;;24.30;95.80;;;24.02;46.82;101927.28;4950898;28;20030;-76
2022/05/07 09:26:47;;;;;;;7.70;3.08;;;24.30;95.00;;;24.03;45.65;101929.00;4930894;28;20116;-76
2022/05/07 09:29:15;;;;;;;5.28;2.67;;;24.50;95.60;;;24.30;45.90;101937.41;4966133;28;20248;-76
2022/05/07 09:31:42;;;;;;;6.07;2.63;;;24.70;95.50;;;24.56;45.74;101927.09;4921346;28;20030;-76
2022/05/07 09:37:20;;;;;;;9.93;2.08;;;25.10;94.10;;;24.99;43.71;101933.25;4968233;28;20108;-76
2022/05/07 09:39:54;;;;;;;6.10;1.70;;;25.20;92.00;;;24.75;42.46;101934.41;4973616;28;20026;-75
2022/05/07 09:42:24;;;;;;;2.78;1.58;;;24.70;92.80;;;23.69;43.84;101937.16;4947722;28;20101;-76
2022/05/07 09:44:53;;;;;;;3.08;1.33;;;;;;;23.18;46.24;101927.06;4962263;23;20057;-76
2022/05/07 09:47:33;;;;;;;9.60;2.20;;;;;;;22.71;46.37;101925.31;4917710;28;20050;-76
2022/05/07 09:58:57;;;;;;;5.57;1.30;;;23.30;94.20;;;22.54;46.09;101915.06;4975648;28;20079;-76
2022/05/07 10:02:11;;;;;;;9.63;2.60;;;23.30;95.60;;;23.01;46.10;101921.19;4975880;28;20038;-76
2022/05/07 10:05:47;;;;;;;3.60;1.50;;;23.70;95.60;;;23.58;44.71;101913.84;4966040;28;20030;-76
2022/05/07 10:08:48;;;;;;;5.55;1.73;;;24.10;94.30;;;24.00;44.47;101919.34;4912649;28;20636;-76
2022/05/07 10:11:15;;;;;;;6.05;1.48;;;24.50;93.90;;;24.32;43.91;101927.34;4967634;28;20062;-76
2022/05/07 10:14:01;;;;;;;2.13;1.40;;;24.70;95.00;;;24.61;43.86;101932.06;4965551;28;20036;-76
2022/05/07 10:16:33;;;;;;;4.22;2.00;;;24.70;93.00;;;24.33;42.67;101929.03;4936645;28;20031;-76
2022/05/07 10:19:12;;;;;;;4.88;1.92;;;24.50;93.50;;;23.90;44.02;101919.25;4935784;28;20514;-76
2022/05/07 10:21:41;;;;;;;9.23;1.70;;;24.00;93.70;;;23.14;46.03;101926.44;4980472;28;20048;-76
2022/05/07 10:24:08;;;;;;;6.30;1.98;;;24.20;94.50;;;23.77;45.57;101926.66;4937659;28;20125;-75
2022/05/07 10:26:46;;;;;;;5.70;1.73;;;24.20;92.60;;;23.83;42.83;101931.53;4949485;28;20042;-76
2022/05/07 10:29:30;;;;;;;4.90;1.60;;;24.40;93.20;;;24.01;42.72;101925.56;4974900;28;20554;-76
2022/05/07 10:32:03;;;;;;;5.22;1.42;;;24.10;92.20;;;23.34;43.24;101924.81;4936036;28;20035;-76
2022/05/07 10:34:31;;;;;;;5.82;1.67;;;23.90;92.40;;;23.11;43.39;101926.69;4963891;23;20045;-76
2022/05/07 10:37:03;;;;;;;6.93;2.00;;;23.80;94.20;;;23.21;44.43;101922.25;4968877;28;20033;-75
2022/05/07 10:39:28;;;;;;;5.28;2.00;;;23.60;93.90;;;22.76;44.58;101926.78;4980631;28;20037;-76
2022/05/07 10:41:57;;;;;;;4.68;1.70;;;23.30;94.60;;;22.45;46.34;101922.00;4958605;28;20475;-76
2022/05/07 10:44:41;;;;;;;4.90;1.75;;;23.10;94.90;;;21.94;46.79;101918.78;4995591;28;20385;-76
2022/05/07 10:47:15;;;;;;;3.30;2.00;;;22.60;95.10;;;21.60;48.82;101922.22;4958783;28;20026;-75
2022/05/07 10:50:11;;;;;;;4.78;2.25;;;22.40;95.70;;;21.59;48.22;101914.28;4981896;28;20045;-76
2022/05/07 10:52:41;;;;;;;5.35;1.80;;;22.40;95.70;;;21.58;47.96;101910.75;4991423;28;20035;-76
2022/05/07 10:55:20;;;;;;;8.38;2.80;;;22.30;96.10;;;21.66;48.64;101912.84;4986673;28;20042;-75
2022/05/07 10:57:57;;;;;;;7.20;2.20;;;22.50;95.90;;;22.09;48.42;101899.72;4982194;28;20030;-76
2022/05/07 11:00:23;;;;;;;;;;;22.50;96.70;;;22.64;47.45;101902.63;4994848;28;20037;-76
2022/05/07 11:03:04;;;;;;;4.55;2.22;;;23.10;95.90;;;22.72;46.76;101908.25;4954675;28;19912;-76
2022/05/07 11:05:42;;;;;;;5.90;2.10;;;22.90;95.30;;;22.29;46.72;101903.56;4917883;23;20456;-76
2022/05/07 11:08:10;;;;;;;7.13;2.13;;;23.00;95.00;;;22.60;46.51;101905.69;4954783;28;20038;-76
2022/05/07 11:10:40;;;;;;;5.43;1.85;;;23.30;95.90;;;23.21;47.14;101902.63;4947820;28;20513;-76
2022/05/07 11:13:08;;;;;;;6.05;1.90;;;23.20;95.00;;;22.71;47.09;101903.84;4957914;28;20514;-76
2022/05/07 11:15:37;;;;;;;9.75;2.10;;;23.10;95.80;;;22.38;47.99;101906.53;4979537;23;20178;-75
2022/05/07 11:18:18;;;;;;;7.90;2.20;;;22.80;95.80;;;22.04;47.54;101885.81;4943225;28;20040;-76
2022/05/07 11:20:44;;;;;;;4.40;1.77;;;22.70;95.70;;;22.12;48.03;101888.75;4983930;28;20025;-75
2022/05/07 11:23:13;;;;;;;5.10;1.90;;;22.90;94.90;;;22.44;46.38;101895.28;4981889;28;20029;-76
2022/05/07 11:25:40;;;;;;;4.45;1.70;;;22.80;95.50;;;22.26;47.89;101892.22;4989627;28;20038;-76
2022/05/07 11:28:07;;;;;;;7.65;2.78;;;22.50;95.60;;;21.58;48.94;101889.31;5007290;28;20037;-76
2022/05/07 11:30:33;;;;;;;7.70;2.88;;;22.20;97.00;;;21.18;51.15;101880.66;4987210;28;20041;-76
2022/05/07 11:33:05;;;;;;;5.22;2.33;;;22.10;97.70;;;21.17;51.55;101881.63;4978287;28;20447;-76
2022/05/07 11:35:30;;;;;;;7.30;2.33;;;21.80;98.30;;;20.95;53.03;101880.50;4985831;28;20398;-76
2022/05/07 11:37:56;;;;;;;5.95;2.88;;;21.50;98.70;;;20.55;53.92;101885.97;5002034;28;20061;-76
2022/05/07 11:40:31;;;;;;;3.75;2.47;;;21.30;98.80;;;20.32;54.26;101878.72;4973190;28;20485;-75
2022/05/07 11:45:41;;;;;;;6.90;2.53;;;20.90;99.40;;;20.04;54.87;101876.16;5007945;28;20464;-76
2022/05/07 11:48:13;;;;;;;5.40;2.70;;;20.90;99.70;;;20.28;54.65;101867.41;5005574;28;20062;-76
2022/05/07 11:50:49;;;;;;;5.72;3.40;;;21.00;99.90;;;20.54;54.38;101854.84;4971384;28;24158;-76
2022/05/07 11:53:17;;;;;;;;;;;21.10;99.90;;;21.06;54.84;101859.16;4969111;28;20561;-76
2022/05/07 11:58:46;;;;;;;7.80;2.85;;;22.50;99.20;;;22.63;50.80;101847.22;4867824;28;20047;-76
2022/05/07 12:01:48;;;;;;;10.80;2.72;;;23.10;98.60;;;23.08;49.48;101865.16;4879985;28;20518;-76
2022/05/07 12:04:13;;;;;;;9.27;2.80;;;23.10;97.00;;;22.81;49.27;101868.22;4944724;28;20034;-76
2022/05/07 12:06:39;;;;;;;5.68;2.75;;;23.00;97.10;;;22.29;49.89;101857.97;4969653;28;20522;-76